Del Rio International Airport
KDRT : now visible

Airfield :











YOU CAN JOIN US ON...

 
LOGIN :

Register | Disclaimer

   EN    FR    IT 

 









Legend :    VFR   Marginal VFR   IFR   Intensive IFR   Very Intensive IFR
Visi :
Ceiling :
>= 8 km
>= 3000ft
5 to 8 km
1000 to 3000 ft
1500m to 5 km
500 to 1000 ft
800 to 1500m
200 to 500 ft
< 800m
< 200 ft
Symbols :   Thunderstorms  Fog  Heavy snow  Heavy precipitations  Wind > 20 kt






- Airport Elevation : 1002 ft


KDRT - Del Rio International

CURRENT METAR :
  • 181101Z AUTO 29007KT 1 1/2SM BR OVC002 12/12 A3013 RMK AO2 T01220117 $

EXPIRED METARs :
  • 181053Z AUTO 29006KT 2SM BR OVC002 12/12 A3012 RMK AO2 SLP195 T01220117 $
  • 181033Z AUTO 28004KT 1 3/4SM BR OVC003 12/12 A3012 RMK AO2 T01220117 $
  • 180953Z AUTO 31005KT 6SM BR OVC003 12/11 A3012 RMK AO2 SLP194 T01220111 $
  • 180913Z AUTO 30004KT 10SM OVC004 12/11 A3011 RMK AO2 T01170106 $
  • 180853Z AUTO 18003KT 10SM OVC005 12/12 A3010 RMK AO2 SLP186 T01170117 58001 $

TAF KDRT
Valid from the 18 at 11:00 until the 19 at 06:00 UTC


181103Z 1811/1906 29006KT 2SM BR OVC002
FM181600 33015KT P6SM FEW250
FM190000 33006KT P6SM SKC



MET'MAP, your aeronautical weather chart ! - Copyright ORBIFLY December 2007 - Disclaimer

ORBIFLY MET'MAP TEAM :

Programming & Development : Alexandra Zaïnal
Concept & original design : Baudouin d'Aumeries
Assistance for programming : Marc-Olivier Méhu
Technical & hardware support : Manuel Goepfert

Contact : metmap@orbifly.com




SOURCES & CREDITS :

   NOAA       Earth
Advisory